createdAt,value
2023-01-10T00:00:02.891Z,94.51
2023-01-10T00:01:02.952Z,94.87
2023-01-10T00:02:03.161Z,94.67
2023-01-10T00:03:03.002Z,94.56
2023-01-10T00:04:02.751Z,94.15
2023-01-10T00:05:02.852Z,94.46
2023-01-10T00:06:02.984Z,94.36
2023-01-10T00:07:02.040Z,94.46
2023-01-10T00:08:02.282Z,94.87
2023-01-10T00:09:01.987Z,94.36
2023-01-10T00:10:02.117Z,94.15
2023-01-10T00:11:02.285Z,94.05
2023-01-10T00:12:02.619Z,94.36
2023-01-10T00:13:02.173Z,94.15
2023-01-10T00:14:02.355Z,93.84
2023-01-10T00:15:02.146Z,94.15
2023-01-10T00:16:02.719Z,94.15
2023-01-10T00:17:02.776Z,94.05
2023-01-10T00:18:02.580Z,93.95
2023-01-10T00:19:02.469Z,94.05
2023-01-10T00:20:02.939Z,93.64
2023-01-10T00:21:02.514Z,94.26
2023-01-10T00:22:02.621Z,93.84
2023-01-10T00:23:02.035Z,93.33
2023-01-10T00:24:02.224Z,93.95
2023-01-10T00:25:02.445Z,93.95
2023-01-10T00:26:02.255Z,93.43
2023-01-10T00:27:02.344Z,93.23
2023-01-10T00:28:02.449Z,93.23
2023-01-10T00:29:02.088Z,93.33
2023-01-10T00:30:02.475Z,93.33
2023-01-10T00:31:02.163Z,93.18
2023-01-10T00:32:01.557Z,93.23
2023-01-10T00:33:01.597Z,93.12
2023-01-10T00:34:01.993Z,93.02
2023-01-10T00:35:01.637Z,93.02
2023-01-10T00:36:01.838Z,93.23
2023-01-10T00:37:01.810Z,93.23
2023-01-10T00:38:01.977Z,93.02
2023-01-10T00:39:01.909Z,93.02
2023-01-10T00:40:01.574Z,92.92
2023-01-10T00:41:01.889Z,93.23
2023-01-10T00:42:02.210Z,93.54
2023-01-10T00:43:02.609Z,92.71
2023-01-10T00:44:02.806Z,92.61
2023-01-10T00:45:02.625Z,92.61
2023-01-10T00:46:02.689Z,92.92
2023-01-10T00:47:01.749Z,92.82
2023-01-10T00:48:01.935Z,92.86
2023-01-10T00:49:02.278Z,93.06
2023-01-10T00:50:01.771Z,92.92
2023-01-10T00:51:01.744Z,92.92
2023-01-10T00:52:02.175Z,92.82
2023-01-10T00:53:02.399Z,92.61
2023-01-10T00:54:02.340Z,92.61
2023-01-10T00:55:02.200Z,92.71
2023-01-10T00:56:02.719Z,92.61
2023-01-10T00:57:02.248Z,92.30
2023-01-10T00:58:02.670Z,92.65
2023-01-10T00:59:02.079Z,92.92
2023-01-10T01:00:02.442Z,92.50
2023-01-10T01:01:02.380Z,92.20
2023-01-10T01:02:02.511Z,92.50
2023-01-10T01:03:02.976Z,92.40
2023-01-10T01:04:02.933Z,92.20
2023-01-10T01:05:02.731Z,92.40
2023-01-10T01:06:02.438Z,92.40
2023-01-10T01:07:02.754Z,91.89
2023-01-10T01:08:02.959Z,91.89
2023-01-10T01:09:03.044Z,91.99
2023-01-10T01:10:02.725Z,92.20
2023-01-10T01:11:03.004Z,92.30
2023-01-10T01:12:02.532Z,92.20
2023-01-10T01:13:02.982Z,91.99
2023-01-10T01:14:02.683Z,92.30
2023-01-10T01:15:02.571Z,91.89
2023-01-10T01:16:02.820Z,91.78
2023-01-10T01:17:02.987Z,91.68
2023-01-10T01:18:02.990Z,91.68
2023-01-10T01:19:03.378Z,91.68
2023-01-10T01:20:03.153Z,91.58
2023-01-10T01:21:03.466Z,91.68
2023-01-10T01:22:03.401Z,91.78
2023-01-10T01:23:03.195Z,91.68
2023-01-10T01:24:03.253Z,91.68
2023-01-10T01:25:03.112Z,91.99
2023-01-10T01:26:03.118Z,91.89
2023-01-10T01:27:02.663Z,91.58
2023-01-10T01:28:02.638Z,91.27
2023-01-10T01:29:02.676Z,91.27
2023-01-10T01:30:02.511Z,91.38
2023-01-10T01:31:02.859Z,91.68
2023-01-10T01:32:03.331Z,91.47
2023-01-10T01:33:03.562Z,91.17
2023-01-10T01:34:03.120Z,91.27
2023-01-10T01:35:03.188Z,91.27
2023-01-10T01:36:03.069Z,91.38
2023-01-10T01:37:02.505Z,91.47
2023-01-10T01:38:02.700Z,91.58
2023-01-10T01:39:02.500Z,91.68
2023-01-10T01:40:02.881Z,92.10
2023-01-10T01:41:02.850Z,91.95
2023-01-10T01:42:03.114Z,91.17
2023-01-10T01:43:02.876Z,91.17
2023-01-10T01:44:02.856Z,91.27
2023-01-10T01:45:03.065Z,91.17
2023-01-10T01:46:03.242Z,91.38
2023-01-10T01:47:02.188Z,91.68
2023-01-10T01:48:02.717Z,91.27
2023-01-10T01:49:02.617Z,91.27
2023-01-10T01:50:02.381Z,91.06
2023-01-10T01:51:02.701Z,91.17
2023-01-10T01:52:02.662Z,91.27
2023-01-10T01:53:02.284Z,91.27
2023-01-10T01:54:02.288Z,91.58
2023-01-10T01:55:02.747Z,91.06
2023-01-10T01:56:02.217Z,90.86
2023-01-10T01:57:02.915Z,91.17
2023-01-10T01:58:02.823Z,91.27
2023-01-10T01:59:02.805Z,90.51
2023-01-10T02:00:02.689Z,90.51
2023-01-10T02:01:02.616Z,90.86
2023-01-10T02:02:01.761Z,90.55
2023-01-10T02:03:03.156Z,90.61
2023-01-10T02:04:01.738Z,90.61
2023-01-10T02:05:01.704Z,90.51
2023-01-10T02:06:01.969Z,90.51
2023-01-10T02:07:02.681Z,90.03
2023-01-10T02:08:02.502Z,90.45
2023-01-10T02:09:02.103Z,90.81
2023-01-10T02:10:02.245Z,90.41
2023-01-10T02:11:02.622Z,90.14
2023-01-10T02:12:02.988Z,90.66
2023-01-10T02:13:02.540Z,90.24
2023-01-10T02:14:02.544Z,90.45
2023-01-10T02:15:02.659Z,90.55
2023-01-10T02:16:02.905Z,90.66
2023-01-10T02:17:02.340Z,90.66
2023-01-10T02:18:01.978Z,90.55
2023-01-10T02:19:02.257Z,90.55
2023-01-10T02:20:02.277Z,90.75
2023-01-10T02:21:01.845Z,90.34
2023-01-10T02:22:02.117Z,90.03
2023-01-10T02:23:02.442Z,90.14
2023-01-10T02:24:02.293Z,90.24
2023-01-10T02:25:02.012Z,90.45
2023-01-10T02:26:01.870Z,90.45
2023-01-10T02:27:01.853Z,90.45
2023-01-10T02:28:01.709Z,89.83
2023-01-10T02:29:01.940Z,89.83
2023-01-10T02:30:01.968Z,89.83
2023-01-10T02:31:01.609Z,90.24
2023-01-10T02:32:01.802Z,90.24
2023-01-10T02:33:05.427Z,90.45
2023-01-10T02:34:02.323Z,90.55
2023-01-10T02:35:01.994Z,90.34
2023-01-10T02:36:01.915Z,90.03
2023-01-10T02:37:01.963Z,90.14
2023-01-10T02:38:02.113Z,90.14
2023-01-10T02:39:01.574Z,90.24
2023-01-10T02:40:01.945Z,90.14
2023-01-10T02:41:01.495Z,90.45
2023-01-10T02:42:02.630Z,90.34
2023-01-10T02:43:02.366Z,90.03
2023-01-10T02:44:02.710Z,89.94
2023-01-10T02:45:02.304Z,89.94
2023-01-10T02:46:02.105Z,89.83
2023-01-10T02:47:01.751Z,90.03
2023-01-10T02:48:02.073Z,89.83
2023-01-10T02:49:02.050Z,89.52
2023-01-10T02:50:02.008Z,89.62
2023-01-10T02:51:02.135Z,89.83
2023-01-10T02:52:02.620Z,90.45
2023-01-10T02:53:02.369Z,90.03
2023-01-10T02:54:02.159Z,89.83
2023-01-10T02:55:02.016Z,90.34
2023-01-10T02:56:02.524Z,90.24
2023-01-10T02:57:02.392Z,89.83
2023-01-10T02:58:02.815Z,89.62
2023-01-10T02:59:02.323Z,89.52
2023-01-10T03:00:02.297Z,89.46
2023-01-10T03:01:02.921Z,89.77
2023-01-10T03:02:03.053Z,89.67
2023-01-10T03:03:02.378Z,89.77
2023-01-10T03:04:02.905Z,89.67
2023-01-10T03:05:02.745Z,89.67
2023-01-10T03:06:02.619Z,89.87
2023-01-10T03:07:03.104Z,89.62
2023-01-10T03:08:03.427Z,89.46
2023-01-10T03:09:03.504Z,89.67
2023-01-10T03:10:03.492Z,89.77
2023-01-10T03:11:03.564Z,89.56
2023-01-10T03:12:03.116Z,89.67
2023-01-10T03:13:02.731Z,89.87
2023-01-10T03:14:03.080Z,89.36
2023-01-10T03:15:02.513Z,89.15
2023-01-10T03:16:03.010Z,89.25
2023-01-10T03:17:04.761Z,89.46
2023-01-10T03:18:02.930Z,89.67
2023-01-10T03:19:03.320Z,89.36
2023-01-10T03:20:03.157Z,89.25
2023-01-10T03:21:02.792Z,89.36
2023-01-10T03:22:02.674Z,89.36
2023-01-10T03:23:02.576Z,89.25
2023-01-10T03:24:02.850Z,89.15
2023-01-10T03:25:02.693Z,89.25
2023-01-10T03:26:02.326Z,89.25
2023-01-10T03:27:03.159Z,89.15
2023-01-10T03:28:02.762Z,89.25
2023-01-10T03:29:02.977Z,89.15
2023-01-10T03:30:02.747Z,89.36
2023-01-10T03:31:03.267Z,89.05
2023-01-10T03:32:02.865Z,89.05
2023-01-10T03:33:03.226Z,89.15
2023-01-10T03:34:02.877Z,89.25
2023-01-10T03:35:03.237Z,88.84
2023-01-10T03:36:03.355Z,88.74
2023-01-10T03:37:02.795Z,88.84
2023-01-10T03:38:02.982Z,89.15
2023-01-10T03:39:02.484Z,89.15
2023-01-10T03:40:02.955Z,88.84
2023-01-10T03:41:02.714Z,89.25
2023-01-10T03:42:02.901Z,89.56
2023-01-10T03:43:03.215Z,89.25
2023-01-10T03:44:03.089Z,88.84
2023-01-10T03:45:03.186Z,89.05
2023-01-10T03:46:03.402Z,89.15
2023-01-10T03:47:03.483Z,89.15
2023-01-10T03:48:02.957Z,88.95
2023-01-10T03:49:03.284Z,88.95
2023-01-10T03:50:02.956Z,89.05
2023-01-10T03:51:03.474Z,89.01
2023-01-10T03:52:02.523Z,88.90
2023-01-10T03:53:02.757Z,88.49
2023-01-10T03:54:02.545Z,88.70
2023-01-10T03:55:02.419Z,88.39
2023-01-10T03:56:02.363Z,88.59
2023-01-10T03:57:03.010Z,88.49
2023-01-10T03:58:02.645Z,88.49
2023-01-10T03:59:03.069Z,88.49
2023-01-10T04:00:02.939Z,88.24
2023-01-10T04:01:02.910Z,88.14
2023-01-10T04:02:02.533Z,87.94
2023-01-10T04:03:02.137Z,87.73
2023-01-10T04:04:02.480Z,87.32
2023-01-10T04:05:02.234Z,87.32
2023-01-10T04:06:02.207Z,87.52
2023-01-10T04:07:02.629Z,87.12
2023-01-10T04:08:02.790Z,87.32
2023-01-10T04:09:02.859Z,87.32
2023-01-10T04:10:02.598Z,87.32
2023-01-10T04:11:02.750Z,87.22
2023-01-10T04:12:03.046Z,87.63
2023-01-10T04:13:02.468Z,87.26
2023-01-10T04:14:02.885Z,87.67
2023-01-10T04:15:03.171Z,87.98
2023-01-10T04:16:02.830Z,87.98
2023-01-10T04:17:02.489Z,88.59
2023-01-10T04:18:02.373Z,88.59
2023-01-10T04:19:02.324Z,88.04
2023-01-10T04:20:02.232Z,87.98
2023-01-10T04:21:02.156Z,87.77
2023-01-10T04:22:02.413Z,87.46
2023-01-10T04:23:02.271Z,88.08
2023-01-10T04:24:02.283Z,88.18
2023-01-10T04:25:02.291Z,88.04
2023-01-10T04:26:02.549Z,87.94
2023-01-10T04:27:02.659Z,87.73
2023-01-10T04:28:02.627Z,87.42
2023-01-10T04:29:02.423Z,87.94
2023-01-10T04:30:02.359Z,87.73
2023-01-10T04:31:02.666Z,87.63
2023-01-10T04:32:02.350Z,87.63
2023-01-10T04:33:02.304Z,87.32
2023-01-10T04:34:01.821Z,86.80
2023-01-10T04:35:01.785Z,87.32
2023-01-10T04:36:02.177Z,87.52
2023-01-10T04:37:02.189Z,87.63
2023-01-10T04:38:02.556Z,87.42
2023-01-10T04:39:02.421Z,87.32
2023-01-10T04:40:02.224Z,87.01
2023-01-10T04:41:02.092Z,86.91
2023-01-10T04:42:02.583Z,86.50
2023-01-10T04:43:02.652Z,86.91
2023-01-10T04:44:02.531Z,86.91
2023-01-10T04:45:02.646Z,87.12
2023-01-10T04:46:02.535Z,87.52
2023-01-10T04:47:02.271Z,87.42
2023-01-10T04:48:02.347Z,87.15
2023-01-10T04:49:02.567Z,87.26
2023-01-10T04:50:02.022Z,87.71
2023-01-10T04:51:02.320Z,87.98
2023-01-10T04:52:02.253Z,87.98
2023-01-10T04:53:02.629Z,87.87
2023-01-10T04:54:02.274Z,87.71
2023-01-10T04:55:02.821Z,87.81
2023-01-10T04:56:02.182Z,87.92
2023-01-10T04:57:02.867Z,87.71
2023-01-10T04:58:02.758Z,87.92
2023-01-10T04:59:02.746Z,88.53
2023-01-10T05:00:02.488Z,88.02
2023-01-10T05:01:02.438Z,88.23
2023-01-10T05:02:03.332Z,88.12
2023-01-10T05:03:02.862Z,88.12
2023-01-10T05:04:02.969Z,88.12
2023-01-10T05:05:02.712Z,87.60
2023-01-10T05:06:03.051Z,87.81
2023-01-10T05:07:02.634Z,88.12
2023-01-10T05:08:02.833Z,88.02
2023-01-10T05:09:02.758Z,88.12
2023-01-10T05:10:02.522Z,87.85
2023-01-10T05:11:02.489Z,87.96
2023-01-10T05:12:02.963Z,87.65
2023-01-10T05:13:02.909Z,87.85
2023-01-10T05:14:02.742Z,88.31
2023-01-10T05:15:02.721Z,88.78
2023-01-10T05:16:02.926Z,88.41
2023-01-10T05:17:03.146Z,88.31
2023-01-10T05:18:03.015Z,88.41
2023-01-10T05:19:02.826Z,88.72
2023-01-10T05:20:03.400Z,89.44
2023-01-10T05:21:03.305Z,88.82
2023-01-10T05:22:03.732Z,89.13
2023-01-10T05:23:03.411Z,88.92
2023-01-10T05:24:03.351Z,88.41
2023-01-10T05:25:03.907Z,88.41
2023-01-10T05:26:03.436Z,88.10
2023-01-10T05:27:03.147Z,88.62
2023-01-10T05:28:02.998Z,88.86
2023-01-10T05:29:02.956Z,88.72
2023-01-10T05:30:03.332Z,88.86
2023-01-10T05:31:02.776Z,89.07
2023-01-10T05:32:03.130Z,89.22
2023-01-10T05:33:02.823Z,89.89
2023-01-10T05:34:02.509Z,89.69
2023-01-10T05:35:02.584Z,89.48
2023-01-10T05:36:02.759Z,89.38
2023-01-10T05:37:02.777Z,89.38
2023-01-10T05:38:02.707Z,89.28
2023-01-10T05:39:02.700Z,89.07
2023-01-10T05:40:02.730Z,88.96
2023-01-10T05:41:02.861Z,89.22
2023-01-10T05:42:02.998Z,89.73
2023-01-10T05:43:03.045Z,89.83
2023-01-10T05:44:03.297Z,89.73
2023-01-10T05:45:02.894Z,89.52
2023-01-10T05:46:03.193Z,90.04
2023-01-10T05:47:02.163Z,89.52
2023-01-10T05:48:02.349Z,89.22
2023-01-10T05:49:02.573Z,89.32
2023-01-10T05:50:02.304Z,89.52
2023-01-10T05:51:02.287Z,89.52
2023-01-10T05:52:03.364Z,89.52
2023-01-10T05:53:03.422Z,89.11
2023-01-10T05:54:02.892Z,89.22
2023-01-10T05:55:03.325Z,89.01
2023-01-10T05:56:03.111Z,89.15
2023-01-10T05:57:02.695Z,89.25
2023-01-10T05:58:02.371Z,89.36
2023-01-10T05:59:14.005Z,89.98
2023-01-10T06:00:04.944Z,89.77
2023-01-10T06:01:02.443Z,89.98
2023-01-10T06:02:03.105Z,90.12
2023-01-10T06:03:03.261Z,90.39
2023-01-10T06:04:02.654Z,89.87
2023-01-10T06:05:02.735Z,89.81
2023-01-10T06:06:03.077Z,90.43
2023-01-10T06:07:02.435Z,90.33
2023-01-10T06:08:02.207Z,90.53
2023-01-10T06:09:02.371Z,90.43
2023-01-10T06:10:02.379Z,90.43
2023-01-10T06:11:02.340Z,90.28
2023-01-10T06:12:02.565Z,89.56
2023-01-10T06:13:02.683Z,89.46
2023-01-10T06:14:02.612Z,89.92
2023-01-10T06:15:03.044Z,89.50
2023-01-10T06:16:02.607Z,89.61
2023-01-10T06:17:02.202Z,89.92
2023-01-10T06:18:02.496Z,89.71
2023-01-10T06:19:02.595Z,89.71
2023-01-10T06:20:02.577Z,89.92
2023-01-10T06:21:02.519Z,90.22
2023-01-10T06:22:02.659Z,90.12
2023-01-10T06:23:02.375Z,90.33
2023-01-10T06:24:02.700Z,90.19
2023-01-10T06:25:02.718Z,89.77
2023-01-10T06:26:02.894Z,89.46
2023-01-10T06:27:02.515Z,89.56
2023-01-10T06:28:02.088Z,89.92
2023-01-10T06:29:02.009Z,90.02
2023-01-10T06:30:02.065Z,89.71
2023-01-10T06:31:02.340Z,90.02
2023-01-10T06:32:02.197Z,90.22
2023-01-10T06:33:02.425Z,90.12
2023-01-10T06:34:02.252Z,90.12
2023-01-10T06:35:02.184Z,89.98
2023-01-10T06:36:02.333Z,90.02
2023-01-10T06:37:03.020Z,90.08
2023-01-10T06:38:02.452Z,90.39
2023-01-10T06:39:02.969Z,90.19
2023-01-10T06:40:02.477Z,90.08
2023-01-10T06:41:02.693Z,89.87
2023-01-10T06:42:02.251Z,89.67
2023-01-10T06:43:02.331Z,89.56
2023-01-10T06:44:02.026Z,89.56
2023-01-10T06:45:02.202Z,89.67
2023-01-10T06:46:02.130Z,89.46
2023-01-10T06:47:02.336Z,89.46
2023-01-10T06:48:01.813Z,89.87
2023-01-10T06:49:01.947Z,89.77
2023-01-10T06:50:02.356Z,89.36
2023-01-10T06:51:01.979Z,89.46
2023-01-10T06:52:02.069Z,89.56
2023-01-10T06:53:01.902Z,89.05
2023-01-10T06:54:02.075Z,89.05
2023-01-10T06:55:01.956Z,89.25
2023-01-10T06:56:02.555Z,89.25
2023-01-10T06:57:02.163Z,89.46
2023-01-10T06:58:01.995Z,88.95
2023-01-10T06:59:02.001Z,89.25
2023-01-10T07:00:02.265Z,89.05
2023-01-10T07:01:02.156Z,88.95
2023-01-10T07:02:02.422Z,88.84
2023-01-10T07:03:02.886Z,89.05
2023-01-10T07:04:02.473Z,89.15
2023-01-10T07:05:02.868Z,88.84
2023-01-10T07:06:02.332Z,88.95
2023-01-10T07:07:03.405Z,88.84
2023-01-10T07:08:02.989Z,88.64
2023-01-10T07:09:03.545Z,88.39
2023-01-10T07:10:03.079Z,88.53
2023-01-10T07:11:03.921Z,88.59
2023-01-10T07:12:02.498Z,88.70
2023-01-10T07:13:02.409Z,88.29
2023-01-10T07:14:02.372Z,88.49
2023-01-10T07:15:02.492Z,88.29
2023-01-10T07:16:02.743Z,88.49
2023-01-10T07:17:03.267Z,88.49
2023-01-10T07:18:03.228Z,88.39
2023-01-10T07:19:02.780Z,88.18
2023-01-10T07:20:03.102Z,88.29
2023-01-10T07:21:03.207Z,88.29
2023-01-10T07:22:02.905Z,88.18
2023-01-10T07:23:03.351Z,88.39
2023-01-10T07:24:03.234Z,88.29
2023-01-10T07:25:02.785Z,88.39
2023-01-10T07:26:02.892Z,88.59
2023-01-10T07:27:02.565Z,88.18
2023-01-10T07:28:02.413Z,88.29
2023-01-10T07:29:02.624Z,88.08
2023-01-10T07:30:02.391Z,88.18
2023-01-10T07:31:02.575Z,88.22
2023-01-10T07:32:03.395Z,88.22
2023-01-10T07:33:03.120Z,88.22
2023-01-10T07:34:03.329Z,88.32
2023-01-10T07:35:02.931Z,88.53
2023-01-10T07:36:03.412Z,88.53
2023-01-10T07:37:02.416Z,88.64
2023-01-10T07:38:02.703Z,88.43
2023-01-10T07:39:02.690Z,88.53
2023-01-10T07:40:02.435Z,88.53
2023-01-10T07:41:02.465Z,88.74
2023-01-10T07:42:02.831Z,88.53
2023-01-10T07:43:03.220Z,88.43
2023-01-10T07:44:03.195Z,88.53
2023-01-10T07:45:02.840Z,88.43
2023-01-10T07:46:03.093Z,88.74
2023-01-10T07:47:03.290Z,88.32
2023-01-10T07:48:02.792Z,88.32
2023-01-10T07:49:03.058Z,88.43
2023-01-10T07:50:02.778Z,88.64
2023-01-10T07:51:03.225Z,88.74
2023-01-10T07:52:02.625Z,88.74
2023-01-10T07:53:02.671Z,88.84
2023-01-10T07:54:02.484Z,88.74
2023-01-10T07:55:02.405Z,88.22
2023-01-10T07:56:02.291Z,88.64
2023-01-10T07:57:02.997Z,88.64
2023-01-10T07:58:02.597Z,88.68
2023-01-10T07:59:03.009Z,88.64
2023-01-10T08:00:02.677Z,88.57
2023-01-10T08:01:02.845Z,88.57
2023-01-10T08:02:02.271Z,88.89
2023-01-10T08:03:02.272Z,88.89
2023-01-10T08:04:02.151Z,89.09
2023-01-10T08:05:01.820Z,88.98
2023-01-10T08:06:02.024Z,89.09
2023-01-10T08:07:02.356Z,89.09
2023-01-10T08:08:02.263Z,89.19
2023-01-10T08:09:02.305Z,89.09
2023-01-10T08:10:02.698Z,89.09
2023-01-10T08:11:02.240Z,89.19
2023-01-10T08:12:02.151Z,89.29
2023-01-10T08:13:16.978Z,89.40
2023-01-10T08:14:01.903Z,89.29
2023-01-10T08:15:02.054Z,89.40
2023-01-10T08:16:01.814Z,89.61
2023-01-10T08:17:02.266Z,89.46
2023-01-10T08:18:04.161Z,89.15
2023-01-10T08:19:01.979Z,89.46
2023-01-10T08:20:01.783Z,89.46
2023-01-10T08:21:01.653Z,89.36
2023-01-10T08:22:01.787Z,89.25
2023-01-10T08:23:02.087Z,89.25
2023-01-10T08:24:02.063Z,89.15
2023-01-10T08:25:01.947Z,89.25
2023-01-10T08:26:01.993Z,89.15
2023-01-10T08:27:02.571Z,89.11
2023-01-10T08:28:01.897Z,89.11
2023-01-10T08:29:01.982Z,89.11
2023-01-10T08:30:02.179Z,88.90
2023-01-10T08:31:01.981Z,89.22
2023-01-10T08:32:02.082Z,89.01
2023-01-10T08:33:01.698Z,88.70
2023-01-10T08:34:01.699Z,88.49
2023-01-10T08:35:01.464Z,88.70
2023-01-10T08:36:02.005Z,88.80
2023-01-10T08:37:01.935Z,88.70
2023-01-10T08:38:02.392Z,88.90
2023-01-10T08:39:01.953Z,88.70
2023-01-10T08:40:02.281Z,88.70
2023-01-10T08:41:01.893Z,88.90
2023-01-10T08:42:01.487Z,88.80
2023-01-10T08:43:01.992Z,88.90
2023-01-10T08:44:01.927Z,88.90
2023-01-10T08:45:01.908Z,88.80
2023-01-10T08:46:02.082Z,89.01
2023-01-10T08:47:01.599Z,88.90
2023-01-10T08:48:01.881Z,89.01
2023-01-10T08:49:01.686Z,88.90
2023-01-10T08:50:02.021Z,88.90
2023-01-10T08:51:02.022Z,88.59
2023-01-10T08:52:02.369Z,88.59
2023-01-10T08:53:02.110Z,88.65
2023-01-10T08:54:01.828Z,88.86
2023-01-10T08:55:02.151Z,88.65
2023-01-10T08:56:03.205Z,88.76
2023-01-10T08:57:01.976Z,88.56
2023-01-10T08:58:02.231Z,88.65
2023-01-10T08:59:02.585Z,88.45
2023-01-10T09:00:02.477Z,88.35
2023-01-10T09:01:02.294Z,88.24
2023-01-10T09:02:03.098Z,88.35
2023-01-10T09:03:03.035Z,88.24
2023-01-10T09:04:02.936Z,88.14
2023-01-10T09:05:04.882Z,88.14
2023-01-10T09:06:03.400Z,88.10
2023-01-10T09:07:02.498Z,87.69
2023-01-10T09:08:02.556Z,87.90
2023-01-10T09:09:02.965Z,87.79
2023-01-10T09:10:03.006Z,87.79
2023-01-10T09:11:02.458Z,87.90
2023-01-10T09:12:02.926Z,87.90
2023-01-10T09:13:02.667Z,87.99
2023-01-10T09:14:03.097Z,87.99
2023-01-10T09:15:02.763Z,87.69
2023-01-10T09:16:03.180Z,87.69
2023-01-10T09:17:02.976Z,87.85
2023-01-10T09:18:02.635Z,87.75
2023-01-10T09:19:02.948Z,87.75
2023-01-10T09:20:02.917Z,87.54
2023-01-10T09:21:02.773Z,87.34
2023-01-10T09:22:02.738Z,87.24
2023-01-10T09:23:03.120Z,86.93
2023-01-10T09:24:02.763Z,87.03
2023-01-10T09:25:03.282Z,86.99
2023-01-10T09:26:03.070Z,87.19
2023-01-10T09:27:03.132Z,86.88
2023-01-10T09:28:03.668Z,86.88
2023-01-10T09:29:03.627Z,86.68
2023-01-10T09:30:03.703Z,86.79
2023-01-10T09:31:03.201Z,87.19
2023-01-10T09:32:02.359Z,87.40
2023-01-10T09:33:02.354Z,86.68
2023-01-10T09:34:02.910Z,86.68
2023-01-10T09:35:02.766Z,86.74
2023-01-10T09:36:02.692Z,86.13
2023-01-10T09:37:03.065Z,85.92
2023-01-10T09:38:02.790Z,85.82
2023-01-10T09:39:02.659Z,86.33
2023-01-10T09:40:02.840Z,86.74
2023-01-10T09:41:02.677Z,86.43
2023-01-10T09:42:02.171Z,86.43
2023-01-10T09:43:02.635Z,86.33
2023-01-10T09:44:02.752Z,86.13
2023-01-10T09:45:02.674Z,85.20
2023-01-10T09:46:02.181Z,85.10
2023-01-10T09:47:06.203Z,85.20
2023-01-10T09:48:02.448Z,85.36
2023-01-10T09:49:02.728Z,85.57
2023-01-10T09:50:02.362Z,85.47
2023-01-10T09:51:02.589Z,85.36
2023-01-10T09:52:03.148Z,84.61
2023-01-10T09:53:02.945Z,84.20
2023-01-10T09:54:11.287Z,84.30
2023-01-10T09:55:03.798Z,84.20
2023-01-10T09:56:03.158Z,84.36
2023-01-10T09:57:02.391Z,83.44
2023-01-10T09:58:02.199Z,83.13
2023-01-10T09:59:02.637Z,83.54
2023-01-10T10:00:02.662Z,82.89
2023-01-10T10:01:02.779Z,82.78
2023-01-10T10:02:02.427Z,82.68
2023-01-10T10:03:02.145Z,82.64
2023-01-10T10:04:02.239Z,82.84
2023-01-10T10:05:02.230Z,81.82
2023-01-10T10:06:11.700Z,81.10
2023-01-10T10:07:02.920Z,81.37
2023-01-10T10:08:02.619Z,80.55
2023-01-10T10:09:04.866Z,80.14
2023-01-10T10:10:02.937Z,79.56
2023-01-10T10:11:02.926Z,79.66
2023-01-10T10:12:02.402Z,80.58
2023-01-10T10:13:02.272Z,80.58
2023-01-10T10:14:02.203Z,80.24
2023-01-10T10:15:02.530Z,80.55
2023-01-10T10:16:02.301Z,80.76
2023-01-10T10:17:01.875Z,80.45
2023-01-10T10:18:02.143Z,79.38
2023-01-10T10:19:02.115Z,79.28
2023-01-10T10:20:01.704Z,78.87
2023-01-10T10:21:01.829Z,79.38
2023-01-10T10:22:02.640Z,79.59
2023-01-10T10:23:02.463Z,79.69
2023-01-10T10:24:02.136Z,78.94
2023-01-10T10:25:02.153Z,79.14
2023-01-10T10:26:02.653Z,78.83
2023-01-10T10:27:02.706Z,77.91
2023-01-10T10:28:02.330Z,78.39
2023-01-10T10:29:02.782Z,78.28
2023-01-10T10:30:02.548Z,78.59
2023-01-10T10:31:02.926Z,78.59
2023-01-10T10:32:02.726Z,78.15
2023-01-10T10:33:02.656Z,77.84
2023-01-10T10:34:02.453Z,76.61
2023-01-10T10:35:02.715Z,76.81
2023-01-10T10:36:02.652Z,76.51
2023-01-10T10:37:01.728Z,76.92
2023-01-10T10:38:01.441Z,77.12
2023-01-10T10:39:01.728Z,77.94
2023-01-10T10:40:01.796Z,77.94
2023-01-10T10:41:01.497Z,77.91
2023-01-10T10:42:02.430Z,76.98
2023-01-10T10:43:02.277Z,75.96
2023-01-10T10:44:02.440Z,75.55
2023-01-10T10:45:02.210Z,75.65
2023-01-10T10:46:02.502Z,75.38
2023-01-10T10:47:02.700Z,75.99
2023-01-10T10:48:02.891Z,76.61
2023-01-10T10:49:02.351Z,76.47
2023-01-10T10:50:02.264Z,75.07
2023-01-10T10:51:02.699Z,74.97
2023-01-10T10:52:02.258Z,75.48
2023-01-10T10:53:02.296Z,76.20
2023-01-10T10:54:01.756Z,75.48
2023-01-10T10:55:01.814Z,75.59
2023-01-10T10:56:02.313Z,75.69
2023-01-10T10:57:02.775Z,75.69
2023-01-10T10:58:02.403Z,75.73
2023-01-10T10:59:02.527Z,75.93
2023-01-10T11:00:02.282Z,76.44
2023-01-10T11:01:02.542Z,76.44
2023-01-10T11:02:03.366Z,75.82
2023-01-10T11:03:02.905Z,76.54
2023-01-10T11:04:03.415Z,75.99
2023-01-10T11:05:03.023Z,75.99
2023-01-10T11:06:03.279Z,76.10
2023-01-10T11:07:03.059Z,76.61
2023-01-10T11:08:03.127Z,76.20
2023-01-10T11:09:03.523Z,76.20
2023-01-10T11:10:03.534Z,76.40
2023-01-10T11:11:03.135Z,75.28
2023-01-10T11:12:02.725Z,75.07
2023-01-10T11:13:02.794Z,75.18
2023-01-10T11:14:02.411Z,74.77
2023-01-10T11:15:02.263Z,74.87
2023-01-10T11:16:02.793Z,75.18
2023-01-10T11:17:02.797Z,75.07
2023-01-10T11:18:02.781Z,75.48
2023-01-10T11:19:03.394Z,75.35
2023-01-10T11:20:02.925Z,74.63
2023-01-10T11:21:02.986Z,74.32
2023-01-10T11:22:03.392Z,74.73
2023-01-10T11:23:03.125Z,74.94
2023-01-10T11:24:02.980Z,74.77
2023-01-10T11:25:03.150Z,74.87
2023-01-10T11:26:03.384Z,74.87
2023-01-10T11:27:03.102Z,75.38
2023-01-10T11:28:03.119Z,75.59
2023-01-10T11:29:02.645Z,75.79
2023-01-10T11:30:02.664Z,76.20
2023-01-10T11:31:03.039Z,75.11
2023-01-10T11:32:03.515Z,75.73
2023-01-10T11:33:03.445Z,75.82
2023-01-10T11:34:03.215Z,76.75
2023-01-10T11:35:03.530Z,75.73
2023-01-10T11:36:03.436Z,75.62
2023-01-10T11:37:02.044Z,75.73
2023-01-10T11:38:02.362Z,76.44
2023-01-10T11:39:02.485Z,75.93
2023-01-10T11:40:02.061Z,75.52
2023-01-10T11:41:02.688Z,75.52
2023-01-10T11:42:02.724Z,76.14
2023-01-10T11:43:03.289Z,76.24
2023-01-10T11:44:02.789Z,75.73
2023-01-10T11:45:03.383Z,74.80
2023-01-10T11:46:03.258Z,75.45
2023-01-10T11:47:03.234Z,75.86
2023-01-10T11:48:02.358Z,75.86
2023-01-10T11:49:07.831Z,76.37
2023-01-10T11:50:02.287Z,76.27
2023-01-10T11:51:02.633Z,75.86
2023-01-10T11:52:02.571Z,75.35
2023-01-10T11:53:03.040Z,75.96
2023-01-10T11:54:03.022Z,75.24
2023-01-10T11:55:03.084Z,76.17
2023-01-10T11:56:02.762Z,76.68
2023-01-10T11:57:03.370Z,76.27
2023-01-10T11:58:02.885Z,75.66
2023-01-10T11:59:03.097Z,75.96
2023-01-10T12:00:02.719Z,76.37
2023-01-10T12:01:02.676Z,75.96
2023-01-10T12:02:02.633Z,76.17
2023-01-10T12:03:02.682Z,75.66
2023-01-10T12:04:02.167Z,75.35
2023-01-10T12:05:02.675Z,75.45
2023-01-10T12:06:02.082Z,75.28
2023-01-10T12:07:02.628Z,75.69
2023-01-10T12:08:02.257Z,75.69
2023-01-10T12:09:02.711Z,76.20
2023-01-10T12:10:02.298Z,76.31
2023-01-10T12:11:02.790Z,75.56
2023-01-10T12:12:02.695Z,75.49
2023-01-10T12:13:02.651Z,75.28
2023-01-10T12:14:02.510Z,75.49
2023-01-10T12:15:02.779Z,75.08
2023-01-10T12:16:02.980Z,75.28
2023-01-10T12:17:03.047Z,75.49
2023-01-10T12:18:01.942Z,75.49
2023-01-10T12:19:02.107Z,74.77
2023-01-10T12:20:01.529Z,74.77
2023-01-10T12:21:01.578Z,74.87
2023-01-10T12:22:01.893Z,74.98
2023-01-10T12:23:02.139Z,75.18
2023-01-10T12:24:02.092Z,74.87
2023-01-10T12:25:01.724Z,74.98
2023-01-10T12:26:11.520Z,75.08
2023-01-10T12:27:01.978Z,75.32
2023-01-10T12:28:01.915Z,75.32
2023-01-10T12:29:02.391Z,75.73
2023-01-10T12:30:01.944Z,75.73
2023-01-10T12:31:02.423Z,76.31
2023-01-10T12:32:02.098Z,76.31
2023-01-10T12:33:02.943Z,75.18
2023-01-10T12:34:02.423Z,75.08
2023-01-10T12:35:02.670Z,75.28
2023-01-10T12:36:03.000Z,75.08
2023-01-10T12:37:02.799Z,75.28
2023-01-10T12:38:02.432Z,75.18
2023-01-10T12:39:02.853Z,75.69
2023-01-10T12:40:02.871Z,75.90
2023-01-10T12:41:02.534Z,75.28
2023-01-10T12:42:02.548Z,75.18
2023-01-10T12:43:01.833Z,75.79
2023-01-10T12:44:02.089Z,75.21
2023-01-10T12:45:02.119Z,75.62
2023-01-10T12:46:09.749Z,75.62
2023-01-10T12:47:08.085Z,75.73
2023-01-10T12:48:02.702Z,75.52
2023-01-10T12:49:02.782Z,75.52
2023-01-10T12:50:02.346Z,76.04
2023-01-10T12:51:02.115Z,76.45
2023-01-10T12:52:02.549Z,76.04